Time;durP1;ratioP1;P1;durP2;ratioP2;P2;SDS_P1;SDS_P2;PMS_P1;PMS_P2;Temp;Humidity;BMP_temperature;BMP_pressure;BME280_temperature;BME280_humidity;BME280_pressure;Samples;Min_cycle;Max_cycle;Signal;HPM_P1;HPM_P2
2021/06/25 00:01:03;;;;;;;3.70;1.40;;;;;;;13.91;100.00;99983.28;6350106;22;20339;-46
2021/06/25 00:04:07;;;;;;;2.20;1.00;;;;;;;13.87;100.00;99982.72;6330781;22;20041;-46
2021/06/25 00:07:10;;;;;;;5.00;1.90;;;;;;;13.74;100.00;99979.56;6349786;22;20331;-45
2021/06/25 00:10:15;;;;;;;3.08;1.33;;;;;;;13.67;100.00;99983.56;6349843;22;20019;-45
2021/06/25 00:13:19;;;;;;;2.53;1.05;;;;;;;13.60;100.00;99975.59;6349751;22;20061;-46
2021/06/25 00:16:23;;;;;;;4.07;1.48;;;;;;;13.57;100.00;99982.97;6330606;22;20014;-46
2021/06/25 00:19:27;;;;;;;6.32;1.77;;;;;;;13.52;100.00;99980.88;6349580;22;20036;-45
2021/06/25 00:22:32;;;;;;;3.50;1.33;;;;;;;13.48;100.00;99974.72;6349575;22;20065;-45
2021/06/25 00:25:36;;;;;;;4.47;2.08;;;;;;;13.48;100.00;99966.34;6349393;22;20022;-46
2021/06/25 00:28:39;;;;;;;4.90;1.98;;;;;;;13.46;100.00;99968.84;6349478;22;20026;-45
2021/06/25 00:31:42;;;;;;;3.15;1.98;;;;;;;13.40;100.00;99959.66;6349496;22;20026;-44
2021/06/25 00:34:46;;;;;;;5.22;2.10;;;;;;;13.37;100.00;99962.63;6349610;22;20025;-45
2021/06/25 00:37:49;;;;;;;4.15;1.58;;;;;;;13.41;100.00;99955.56;6339520;22;20022;-45
2021/06/25 00:40:53;;;;;;;3.83;1.77;;;;;;;13.37;100.00;99966.22;6349542;22;20026;-45
2021/06/25 00:43:57;;;;;;;12.18;1.92;;;;;;;13.35;100.00;99954.75;6348767;22;20033;-46
2021/06/25 00:47:02;;;;;;;4.75;1.75;;;;;;;13.36;100.00;99956.28;6349173;22;20022;-46
2021/06/25 00:50:07;;;;;;;10.38;1.90;;;;;;;13.31;100.00;99954.19;6349103;22;20041;-46
2021/06/25 00:53:11;;;;;;;7.75;2.00;;;;;;;13.25;100.00;99953.38;6348991;22;20450;-46
2021/06/25 00:56:14;;;;;;;4.07;1.90;;;;;;;13.26;100.00;99952.09;6348714;22;20029;-47
2021/06/25 00:59:18;;;;;;;6.05;2.42;;;;;;;13.26;100.00;99943.72;6347954;22;20030;-47
2021/06/25 01:02:21;;;;;;;8.35;1.10;;;;;;;13.23;100.00;99950.28;6348407;22;20029;-47
2021/06/25 01:05:33;;;;;;;4.03;2.03;;;;;;;13.29;100.00;99939.16;6348956;22;20061;-47
2021/06/25 01:08:42;;;;;;;2.60;1.55;;;;;;;13.24;100.00;99937.84;6329707;22;20529;-47
2021/06/25 01:11:46;;;;;;;5.00;1.42;;;;;;;13.25;100.00;99928.22;6349047;22;20025;-46
2021/06/25 01:14:50;;;;;;;2.30;1.30;;;;;;;13.31;100.00;99933.84;6348444;22;20021;-47
2021/06/25 01:17:53;;;;;;;2.33;1.40;;;;;;;13.35;100.00;99932.38;6348499;22;20021;-46
2021/06/25 01:20:58;;;;;;;3.28;1.08;;;;;;;13.27;100.00;99919.31;6348497;22;20029;-47
2021/06/25 01:24:02;;;;;;;2.38;1.08;;;;;;;13.36;100.00;99922.69;6348687;22;20025;-47
2021/06/25 01:27:06;;;;;;;1.10;0.38;;;;;;;13.38;100.00;99922.22;6347966;22;20025;-46
2021/06/25 01:30:13;;;;;;;1.15;0.60;;;;;;;13.36;100.00;99917.09;6348346;22;20022;-46
2021/06/25 01:33:19;;;;;;;2.05;0.43;;;;;;;13.43;100.00;99916.69;6348720;22;20026;-47
2021/06/25 01:36:23;;;;;;;3.72;1.17;;;;;;;13.43;100.00;99899.88;6344617;22;20029;-48
2021/06/25 01:39:28;;;;;;;2.40;0.68;;;;;;;13.44;100.00;99901.44;6348783;22;20029;-46
2021/06/25 01:42:43;;;;;;;1.80;1.65;;;;;;;13.49;100.00;99897.16;6348504;22;20026;-46
2021/06/25 01:45:50;;;;;;;1.15;0.57;;;;;;;13.45;100.00;99899.38;6329746;22;20017;-46
2021/06/25 01:48:53;;;;;;;4.32;1.48;;;;;;;13.48;100.00;99896.38;6348883;22;20022;-46
2021/06/25 01:51:58;;;;;;;2.88;0.85;;;;;;;13.45;100.00;99897.38;6348608;22;20120;-46
2021/06/25 01:55:05;;;;;;;2.53;0.73;;;;;;;13.51;100.00;99906.56;6348295;22;20030;-46
2021/06/25 01:58:15;;;;;;;3.80;0.50;;;;;;;13.52;100.00;99896.94;6348619;22;20022;-46
2021/06/25 02:01:18;;;;;;;3.08;0.55;;;;;;;13.48;100.00;99901.97;6348629;22;20045;-46
2021/06/25 02:04:22;;;;;;;2.10;0.73;;;;;;;13.51;100.00;99906.56;6348364;22;20025;-46
2021/06/25 02:07:27;;;;;;;2.20;0.60;;;;;;;13.48;100.00;99901.22;6348231;22;20347;-46
2021/06/25 02:10:30;;;;;;;1.80;0.63;;;;;;;13.56;100.00;99900.28;6348350;22;20021;-46
2021/06/25 02:13:34;;;;;;;2.75;1.25;;;;;;;13.48;100.00;99901.97;6348208;22;20339;-46
2021/06/25 02:16:38;;;;;;;9.75;1.70;;;;;;;13.43;100.00;99899.88;6348278;22;20030;-46
2021/06/25 02:19:43;;;;;;;4.15;1.08;;;;;;;13.43;100.00;99894.28;6347868;22;20038;-46
2021/06/25 02:22:46;;;;;;;2.35;0.95;;;;;;;13.43;100.00;99901.91;6348209;22;20022;-46
2021/06/25 02:25:50;;;;;;;0.75;0.50;;;;;;;13.48;100.00;99878.84;6348161;22;20022;-46
2021/06/25 02:28:53;;;;;;;9.35;1.13;;;;;;;13.48;100.00;99885.19;6348292;22;20026;-45
2021/06/25 02:31:56;;;;;;;0.82;0.40;;;;;;;13.45;100.00;99882.59;6347649;22;20026;-45
2021/06/25 02:35:00;;;;;;;0.82;0.45;;;;;;;13.40;100.00;99889.72;6348203;22;20042;-45
2021/06/25 02:38:03;;;;;;;2.90;1.02;;;;;;;13.33;100.00;99890.13;6337651;22;20474;-46
2021/06/25 02:41:07;;;;;;;1.75;0.88;;;;;;;13.30;100.00;99895.94;6348067;22;20022;-46
2021/06/25 02:44:11;;;;;;;1.30;0.80;;;;;;;13.22;100.00;99892.81;6347478;22;20026;-46
2021/06/25 02:47:15;;;;;;;3.53;0.95;;;;;;;13.14;100.00;99890.94;6348610;22;20022;-46
2021/06/25 02:50:18;;;;;;;2.50;0.47;;;;;;;13.05;100.00;99897.47;6330912;22;20351;-46
2021/06/25 02:53:22;;;;;;;1.15;0.85;;;;;;;12.94;100.00;99892.50;6350398;22;20026;-46
2021/06/25 02:56:33;;;;;;;0.80;0.52;;;;;;;12.85;100.00;99897.44;6349279;22;20025;-46
2021/06/25 02:59:39;;;;;;;10.98;1.17;;;;;;;12.73;100.00;99893.00;6331534;22;20312;-45
2021/06/25 03:02:43;;;;;;;2.55;1.05;;;;;;;12.67;100.00;99894.94;6349838;22;20022;-45
2021/06/25 03:05:48;;;;;;;2.28;0.93;;;;;;;12.60;100.00;99895.38;6350449;22;20021;-46
2021/06/25 03:08:52;;;;;;;3.15;1.23;;;;;;;12.54;100.00;99891.75;6349239;22;20026;-46
2021/06/25 03:11:55;;;;;;;3.22;0.93;;;;;;;12.48;100.00;99900.03;6350080;22;20443;-46
2021/06/25 03:14:59;;;;;;;2.35;0.80;;;;;;;12.46;100.00;99898.97;6349641;22;20402;-46
2021/06/25 03:18:03;;;;;;;2.05;0.88;;;;;;;12.44;100.00;99895.91;6350200;22;20021;-46
2021/06/25 03:21:07;;;;;;;5.68;1.02;;;;;;;12.39;100.00;99896.63;6348817;22;20025;-45
2021/06/25 03:24:10;;;;;;;1.40;0.90;;;;;;;12.34;100.00;99900.09;6349367;22;20022;-45
2021/06/25 03:27:13;;;;;;;1.27;0.95;;;;;;;12.29;100.00;99895.19;6330156;22;20022;-46
2021/06/25 03:30:17;;;;;;;0.68;0.68;;;;;;;12.25;100.00;99903.00;6350047;22;20063;-46
2021/06/25 03:33:20;;;;;;;10.40;0.50;;;;;;;12.23;100.00;99902.72;6349290;22;20327;-45
2021/06/25 03:36:24;;;;;;;7.57;0.88;;;;;;;12.26;100.00;99905.28;6345969;22;20030;-46
2021/06/25 03:39:28;;;;;;;0.68;0.52;;;;;;;12.13;100.00;99896.47;6330559;22;20465;-45
2021/06/25 03:42:31;;;;;;;1.70;0.57;;;;;;;12.12;100.00;99911.69;6349759;22;20046;-45
2021/06/25 03:45:35;;;;;;;1.25;0.75;;;;;;;12.11;100.00;99908.13;6349082;22;20022;-45
2021/06/25 03:48:38;;;;;;;3.55;1.23;;;;;;;12.09;100.00;99907.84;6349702;22;20319;-46
2021/06/25 03:51:42;;;;;;;2.60;0.95;;;;;;;12.09;100.00;99912.66;6349572;22;20022;-46
2021/06/25 03:54:45;;;;;;;1.73;0.93;;;;;;;12.05;100.00;99910.06;6349909;22;20391;-46
2021/06/25 03:57:49;;;;;;;6.63;2.03;;;;;;;12.02;100.00;99913.81;6348615;22;20017;-46
2021/06/25 04:00:53;;;;;;;3.22;1.67;;;;;;;12.01;100.00;99906.72;6349661;22;20025;-46
2021/06/25 04:03:58;;;;;;;5.53;2.03;;;;;;;11.98;100.00;99912.47;6349459;22;20029;-46
2021/06/25 04:07:01;;;;;;;9.02;2.30;;;;;;;11.98;100.00;99907.69;6349684;22;20026;-46
2021/06/25 04:10:08;;;;;;;4.35;2.17;;;;;;;11.95;100.00;99922.59;6349117;22;20041;-46
2021/06/25 04:13:12;;;;;;;18.10;2.08;;;;;;;11.91;100.00;99919.22;6349544;22;20026;-46
2021/06/25 04:16:16;;;;;;;12.63;2.72;;;;;;;11.89;100.00;99924.53;6349685;22;20022;-46
2021/06/25 04:19:19;;;;;;;5.13;2.10;;;;;;;11.88;100.00;99916.66;6349380;22;20022;-46
2021/06/25 04:22:24;;;;;;;3.17;1.80;;;;;;;11.79;100.00;99911.94;6348807;22;20017;-46
2021/06/25 04:25:27;;;;;;;4.15;1.55;;;;;;;11.81;100.00;99914.25;6349096;22;20344;-46
2021/06/25 04:28:32;;;;;;;10.55;1.27;;;;;;;11.79;100.00;99911.94;6348978;22;20025;-46
2021/06/25 04:31:36;;;;;;;9.40;1.70;;;;;;;11.74;100.00;99914.63;6348522;22;20018;-46
2021/06/25 04:34:39;;;;;;;1.88;0.98;;;;;;;11.69;100.00;99913.31;6347991;22;20021;-45
2021/06/25 04:37:42;;;;;;;6.07;1.67;;;;;;;11.65;100.00;99929.41;6339171;22;20026;-46
2021/06/25 04:40:46;;;;;;;2.97;1.33;;;;;;;11.68;100.00;99922.91;6348573;22;20018;-46
2021/06/25 04:43:50;;;;;;;3.10;1.02;;;;;;;11.63;100.00;99929.13;6348692;22;20026;-46
2021/06/25 04:46:53;;;;;;;2.40;1.17;;;;;;;11.58;100.00;99934.63;6348571;22;20414;-46
2021/06/25 04:49:56;;;;;;;3.22;1.50;;;;;;;11.52;100.00;99923.34;6349003;22;20466;-46
2021/06/25 04:53:00;;;;;;;5.90;1.42;;;;;;;11.48;100.00;99931.13;6329923;22;20021;-46
2021/06/25 04:56:03;;;;;;;1.42;0.73;;;;;;;11.47;100.00;99940.78;6348542;22;20021;-46
2021/06/25 04:59:07;;;;;;;2.45;0.88;;;;;;;11.46;100.00;99939.22;6348604;22;20022;-46
2021/06/25 05:02:17;;;;;;;5.28;2.45;;;;;;;11.42;100.00;99944.22;6348857;22;20026;-46
2021/06/25 05:05:22;;;;;;;10.00;1.77;;;;;;;11.39;100.00;99945.19;6330061;22;20303;-46
2021/06/25 05:08:26;;;;;;;2.72;1.30;;;;;;;11.39;100.00;99939.63;6329220;22;20474;-46
2021/06/25 05:11:29;;;;;;;4.45;1.77;;;;;;;11.41;100.00;99935.06;6347909;22;20450;-46
2021/06/25 05:14:33;;;;;;;4.95;1.45;;;;;;;11.41;100.00;99942.69;6348317;22;20018;-46
2021/06/25 05:17:36;;;;;;;3.17;1.00;;;;;;;11.39;100.00;99936.81;6349037;22;20038;-46
2021/06/25 05:20:41;;;;;;;2.97;1.80;;;;;;;11.39;100.00;99942.41;6348089;22;20025;-46
2021/06/25 05:23:45;;;;;;;2.97;1.52;;;;;;;11.36;100.00;99940.56;6348141;22;20327;-46
2021/06/25 05:26:48;;;;;;;3.75;1.33;;;;;;;11.38;100.00;99938.06;6348168;22;20064;-46
2021/06/25 05:29:51;;;;;;;3.33;1.63;;;;;;;11.46;100.00;99925.28;6348901;22;20021;-46
2021/06/25 05:32:55;;;;;;;4.43;1.35;;;;;;;11.51;100.00;99930.19;6348603;22;20029;-46
2021/06/25 05:35:59;;;;;;;9.45;1.73;;;;;;;11.48;100.00;99930.38;6346131;22;20462;-46
2021/06/25 05:39:02;;;;;;;5.18;1.20;;;;;;;11.39;100.00;99928.47;6348209;22;20069;-46
2021/06/25 05:42:06;;;;;;;1.67;1.13;;;;;;;11.57;100.00;99917.09;6347818;22;20037;-46
2021/06/25 05:45:11;;;;;;;2.92;1.98;;;;;;;11.54;100.00;99922.88;6347882;22;20022;-46
2021/06/25 05:48:15;;;;;;;2.33;1.20;;;;;;;11.54;100.00;99922.88;6348011;22;20507;-46
2021/06/25 05:51:18;;;;;;;4.75;1.42;;;;;;;11.64;100.00;99911.16;6348267;22;20448;-46
2021/06/25 05:54:22;;;;;;;4.78;2.10;;;;;;;11.67;100.00;99913.03;6348367;22;20026;-45
2021/06/25 05:57:26;;;;;;;2.92;0.65;;;;;;;11.64;100.00;99915.94;6348088;22;20017;-46
2021/06/25 06:00:30;;;;;;;10.07;1.58;;;;;;;11.73;100.00;99919.44;6348054;22;20021;-45
2021/06/25 06:03:33;;;;;;;4.45;1.95;;;;;;;11.85;100.00;99921.16;6308155;22;20223;-46
2021/06/25 06:06:37;;;;;;;5.80;1.70;;;;;;;11.97;100.00;99908.94;6294312;22;20215;-45
2021/06/25 06:09:41;;;;;;;4.20;1.77;;;;;;;11.96;100.00;99906.63;6300209;22;20022;-46
2021/06/25 06:12:45;;;;;;;3.63;1.27;;;;;;;12.05;100.00;99918.44;6295697;22;20474;-46
2021/06/25 06:15:49;;;;;;;1.45;1.35;;;;;;;12.00;100.00;99907.97;6296513;22;20403;-46
2021/06/25 06:18:53;;;;;;;7.07;1.38;;;;;;;12.00;100.00;99915.56;6299110;22;20018;-45
2021/06/25 06:32:17;;;;;;;2.47;1.15;;;;;;;11.91;100.00;99904.53;6294798;22;20223;-45
2021/06/25 06:35:21;;;;;;;1.70;1.35;;;;;;;11.90;100.00;99911.34;6292999;22;20108;-45
2021/06/25 06:38:29;;;;;;;3.38;0.93;;;;;;;11.86;100.00;99919.94;6288936;22;20414;-56
2021/06/25 06:41:33;;;;;;;1.05;0.52;;;;;;;11.82;100.00;99919.34;6290204;22;20643;-56
2021/06/25 06:44:37;;;;;;;3.53;1.27;;;;;;;11.93;100.00;78100.63;6291003;22;20017;-56
2021/06/25 06:47:40;;;;;;;1.90;1.25;;;;;;;11.85;100.00;99921.16;6292941;22;20779;-54
2021/06/25 06:50:44;;;;;;;1.50;0.95;;;;;;;11.82;100.00;99932.53;6291019;22;20065;-55
2021/06/25 06:53:48;;;;;;;0.60;0.50;;;;;;;11.83;100.00;99934.84;6293863;22;20387;-55
2021/06/25 06:56:51;;;;;;;5.38;1.45;;;;;;;11.87;100.00;99931.84;6296566;22;20609;-54
2021/06/25 06:59:54;;;;;;;1.95;1.30;;;;;;;11.86;100.00;99942.25;6295402;22;20030;-53
2021/06/25 07:02:58;;;;;;;0.75;0.45;;;;;;;11.86;100.00;99933.88;6292794;22;20018;-54
2021/06/25 07:06:03;;;;;;;1.88;0.50;;;;;;;11.89;100.00;99938.47;6298958;22;20022;-54
2021/06/25 07:09:07;;;;;;;3.70;1.05;;;;;;;11.83;100.00;99951.56;6297164;22;20026;-54
2021/06/25 07:12:10;;;;;;;1.38;0.90;;;;;;;11.83;100.00;99950.78;6296523;22;20470;-54
2021/06/25 07:15:14;;;;;;;3.83;1.63;;;;;;;11.85;100.00;99948.28;6293018;22;20759;-53
2021/06/25 07:18:18;;;;;;;0.82;0.55;;;;;;;11.89;100.00;99949.63;6294608;22;20038;-54
2021/06/25 07:21:21;;;;;;;1.63;1.05;;;;;;;11.94;100.00;99951.75;6293094;22;20010;-54
2021/06/25 07:24:24;;;;;;;1.23;1.23;;;;;;;11.95;100.00;99960.91;6277473;22;20010;-54
2021/06/25 07:27:28;;;;;;;0.82;0.55;;;;;;;11.95;100.00;99969.28;6296417;22;20014;-54
2021/06/25 07:30:32;;;;;;;0.40;0.40;;;;;;;11.95;100.00;99964.44;6295837;22;20014;-53
2021/06/25 07:33:36;;;;;;;2.58;0.85;;;;;;;11.90;100.00;99972.75;6294436;22;20010;-54
2021/06/25 07:36:40;;;;;;;1.67;0.75;;;;;;;11.91;100.00;99969.47;6296017;22;20022;-53
2021/06/25 07:39:44;;;;;;;0.75;0.75;;;;;;;11.83;100.00;99975.91;6294418;22;20331;-55
2021/06/25 07:42:48;;;;;;;3.42;1.10;;;;;;;11.81;100.00;99964.47;6295300;22;20799;-53
2021/06/25 07:45:52;;;;;;;4.53;1.17;;;;;;;11.84;100.00;99964.28;6294372;22;20077;-52
2021/06/25 07:48:55;;;;;;;2.83;1.33;;;;;;;11.97;100.00;99967.56;6293697;22;20022;-53
2021/06/25 07:51:59;;;;;;;0.65;0.30;;;;;;;12.14;100.00;99965.81;6276199;22;20215;-54
2021/06/25 07:55:04;;;;;;;4.15;1.60;;;;;;;12.29;100.00;99959.41;6295130;22;20282;-54
2021/06/25 07:58:09;;;;;;;2.72;1.17;;;;;;;12.45;100.00;99961.69;6296095;22;20107;-54
2021/06/25 08:01:13;;;;;;;1.13;0.77;;;;;;;12.65;100.00;99961.72;6296103;22;20132;-54
2021/06/25 08:04:17;;;;;;;2.33;0.65;;;;;;;12.80;100.00;99962.41;6295020;22;20021;-53
2021/06/25 08:07:20;;;;;;;3.53;1.15;;;;;;;12.89;100.00;99959.50;6295447;22;20034;-53
2021/06/25 08:10:24;;;;;;;1.63;0.47;;;;;;;12.94;100.00;99958.81;6297912;22;20314;-54
2021/06/25 08:13:27;;;;;;;1.23;0.50;;;;;;;12.96;100.00;99956.28;6297175;22;20033;-53
2021/06/25 08:16:31;;;;;;;1.02;0.70;;;;;;;12.93;100.00;99954.47;6295087;22;20713;-54
2021/06/25 08:19:35;;;;;;;1.85;1.05;;;;;;;12.76;100.00;99954.25;6293086;22;20522;-54
2021/06/25 08:22:39;;;;;;;2.28;0.98;;;;;;;12.68;100.00;99957.94;6294906;22;20510;-54
2021/06/25 08:25:42;;;;;;;2.05;1.30;;;;;;;12.64;100.00;99952.56;6294217;22;20018;-54
2021/06/25 08:28:46;;;;;;;2.40;0.95;;;;;;;12.70;100.00;99955.44;6296074;22;20018;-54
2021/06/25 08:31:50;;;;;;;3.22;0.82;;;;;;;12.83;100.00;99948.25;6275864;22;20037;-54
2021/06/25 08:34:53;;;;;;;2.38;1.08;;;;;;;12.96;100.00;99950.69;6297807;22;20014;-53
2021/06/25 08:37:57;;;;;;;1.17;1.10;;;;;;;13.03;100.00;99947.50;6292900;22;20045;-54
2021/06/25 08:41:00;;;;;;;3.03;1.00;;;;;;;13.05;100.00;99945.00;6278178;22;20018;-53
2021/06/25 08:44:05;;;;;;;3.22;1.13;;;;;;;13.10;100.00;99951.91;6296099;22;20032;-53
2021/06/25 08:47:09;;;;;;;1.63;0.95;;;;;;;13.24;100.00;99945.47;6296439;22;20521;-54
2021/06/25 08:50:22;;;;;;;3.63;0.90;;;;;;;13.21;100.00;99943.66;6294556;22;20355;-53
2021/06/25 08:53:25;;;;;;;3.97;1.17;;;;;;;13.28;100.00;99941.19;6294998;22;20951;-54
2021/06/25 08:56:32;;;;;;;1.55;1.17;;;;;;;13.35;100.00;99932.38;6294762;22;20034;-54
2021/06/25 08:59:36;;;;;;;5.25;1.50;;;;;;;13.45;100.00;99936.53;6293691;22;20010;-53
2021/06/25 09:02:40;;;;;;;4.10;1.85;;;;;;;13.36;100.00;99931.09;6294447;22;20065;-55
2021/06/25 09:05:43;;;;;;;4.00;1.88;;;;;;;13.32;100.00;99927.75;6300348;22;20295;-54
2021/06/25 09:08:47;;;;;;;8.00;1.33;;;;;;;13.40;100.00;99919.72;6297949;22;20041;-54
2021/06/25 09:12:11;;;;;;;4.20;1.50;;;;;;;13.31;100.00;99917.84;6301301;22;20013;-54
2021/06/25 09:15:15;;;;;;;3.25;1.30;;;;;;;13.30;100.00;99916.28;6300248;22;20124;-54
2021/06/25 09:18:19;;;;;;;3.35;1.42;;;;;;;13.43;100.00;99916.69;6299103;22;20006;-55
2021/06/25 09:21:23;;;;;;;5.50;2.28;;;;;;;13.49;100.00;99916.75;6297331;22;20244;-54
2021/06/25 09:24:28;;;;;;;3.28;1.90;;;;;;;13.52;100.00;99902.53;6297799;22;20010;-54
2021/06/25 09:27:33;;;;;;;4.60;2.20;;;;;;;13.53;100.00;99918.06;6297431;22;20053;-55
2021/06/25 09:30:43;;;;;;;3.92;1.58;;;;;;;13.50;100.00;99927.44;6300563;22;20022;-55
2021/06/25 09:33:52;;;;;;;8.00;1.45;;;;;;;13.35;100.00;99921.19;6296091;22;20018;-55
2021/06/25 09:37:01;;;;;;;5.70;1.50;;;;;;;13.22;100.00;99929.19;6298446;22;20294;-53
2021/06/25 09:40:08;;;;;;;3.45;1.23;;;;;;;13.14;100.00;99928.06;6298027;22;20537;-55
2021/06/25 09:43:13;;;;;;;1.90;1.23;;;;;;;13.20;100.00;99931.69;6298949;22;20021;-53
2021/06/25 09:46:24;;;;;;;3.97;1.30;;;;;;;13.05;100.00;99931.03;6296075;22;20014;-56
2021/06/25 09:49:31;;;;;;;1.48;1.20;;;;;;;13.00;100.00;99934.47;6295892;22;20025;-55
2021/06/25 09:53:04;;;;;;;2.22;1.63;;;;;;;13.07;100.00;99942.47;6294926;22;20674;-55
2021/06/25 09:56:22;;;;;;;3.45;1.85;;;;;;;13.02;100.00;99948.72;6295255;22;20014;-54
2021/06/25 10:02:41;;;;;;;0.90;0.90;;;;;;;13.06;100.00;99945.78;6295490;22;20026;-55
2021/06/25 10:05:44;;;;;;;0.95;0.52;;;;;;;13.07;100.00;99950.88;6295924;22;20038;-53
2021/06/25 10:08:49;;;;;;;7.53;1.45;;;;;;;13.09;100.00;99953.16;6296196;22;20022;-54
2021/06/25 10:11:53;;;;;;;4.40;1.02;;;;;;;13.15;100.00;99954.75;6295059;22;20274;-55
2021/06/25 10:15:00;;;;;;;5.25;1.05;;;;;;;13.27;100.00;99948.06;6294601;22;20014;-53
2021/06/25 10:18:04;;;;;;;2.22;0.70;;;;;;;13.37;100.00;99957.81;6293966;22;20013;-54
2021/06/25 10:21:14;;;;;;;0.98;0.98;;;;;;;13.30;100.00;99957.47;6295131;22;20775;-55
2021/06/25 10:24:19;;;;;;;2.25;0.93;;;;;;;13.26;100.00;99954.91;6295086;22;20013;-55
2021/06/25 10:27:23;;;;;;;1.17;0.63;;;;;;;13.31;100.00;99959.03;6277241;22;20010;-55
2021/06/25 10:30:31;;;;;;;2.53;0.43;;;;;;;13.37;100.00;99957.81;6296109;22;20667;-55
2021/06/25 10:33:36;;;;;;;0.32;0.30;;;;;;;13.51;100.00;99956.19;6295636;22;20030;-55
2021/06/25 10:36:42;;;;;;;6.45;1.00;;;;;;;13.64;100.00;99951.72;6294864;22;20050;-54
2021/06/25 10:39:45;;;;;;;3.13;0.50;;;;;;;13.75;100.00;99953.13;6295330;22;20411;-55
2021/06/25 10:42:49;;;;;;;1.85;1.15;;;;;;;13.95;100.00;99945.41;6293966;22;20261;-55
2021/06/25 10:45:53;;;;;;;2.70;0.75;;;;;;;14.17;100.00;99950.41;6294581;22;20042;-54
2021/06/25 10:48:57;;;;;;;2.47;0.60;;;;;;;14.30;100.00;99947.97;6294363;22;20359;-54
2021/06/25 10:52:08;;;;;;;1.20;0.55;;;;;;;14.31;100.00;99949.53;6293792;22;20034;-54
2021/06/25 10:55:16;;;;;;;2.28;0.60;;;;;;;14.33;100.00;99947.00;6294061;22;20509;-55
2021/06/25 10:58:24;;;;;;;0.70;0.30;;;;;;;14.37;100.00;99947.53;6293488;22;20128;-55
2021/06/25 11:01:56;;;;;;;3.70;0.80;;;;;;;14.35;100.00;99947.25;6292994;22;20018;-54
2021/06/25 11:05:00;;;;;;;1.38;0.82;;;;;;;14.49;100.00;99940.72;6294388;22;20018;-55
2021/06/25 11:08:16;;;;;;;1.25;0.68;;;;;;;14.52;100.00;99936.16;6293591;22;20355;-55
2021/06/25 11:11:27;;;;;;;1.13;0.30;;;;;;;14.70;100.00;99932.94;6295882;22;20687;-55
2021/06/25 11:14:31;;;;;;;2.78;0.93;;;;;;;14.92;100.00;99935.88;6294681;22;20053;-55
2021/06/25 11:17:52;;;;;;;1.05;0.52;;;;;;;15.05;100.00;99933.38;6299625;22;20026;-55
2021/06/25 11:20:58;;;;;;;;;;;;;;;15.05;100.00;99928.50;6300840;22;20010;-55
2021/06/25 11:24:02;;;;;;;0.38;0.38;;;;;;;15.19;100.00;99919.13;6300518;22;20322;-54
2021/06/25 11:27:06;;;;;;;1.73;0.55;;;;;;;15.18;100.00;99917.59;6302054;22;20013;-55
2021/06/25 11:30:10;;;;;;;1.38;0.40;;;;;;;15.10;100.00;99919.34;6300922;22;20466;-55
2021/06/25 11:33:37;;;;;;;1.20;0.40;;;;;;;14.98;100.00;99917.78;6303991;22;20014;-55
2021/06/25 11:36:52;;;;;;;1.10;0.47;;;;;;;14.80;100.00;99923.06;6300198;22;20026;-55
2021/06/25 11:39:55;;;;;;;1.27;0.32;;;;;;;14.80;100.00;99912.59;6303001;22;20649;-53
2021/06/25 11:42:59;;;;;;;1.00;0.55;;;;;;;14.74;100.00;99925.84;6282766;22;20045;-55
2021/06/25 11:46:05;;;;;;;8.68;0.40;;;;;;;14.71;100.00;99926.06;6299844;22;20034;-54
2021/06/25 11:49:09;;;;;;;0.68;0.30;;;;;;;14.81;100.00;99921.78;6297372;22;20731;-54
2021/06/25 11:52:15;;;;;;;0.80;0.60;;;;;;;15.18;100.00;99919.66;6298214;22;20410;-54
2021/06/25 11:55:22;;;;;;;0.90;0.20;;;;;;;15.27;100.00;99910.97;6296959;22;20018;-54
2021/06/25 11:58:27;;;;;;;0.68;0.40;;;;;;;15.18;100.00;99926.00;6296968;22;20013;-55
2021/06/25 12:01:32;;;;;;;1.40;0.70;;;;;;;14.86;100.00;99921.81;6297027;22;20021;-55
2021/06/25 12:04:42;;;;;;;0.28;0.25;;;;;;;14.57;100.00;99921.41;6298696;22;20014;-55
2021/06/25 12:08:01;;;;;;;1.35;0.50;;;;;;;14.52;100.00;99928.53;6292740;22;20022;-55
2021/06/25 12:11:06;;;;;;;1.83;0.55;;;;;;;14.57;100.00;99930.59;6291545;22;20239;-55
2021/06/25 12:14:10;;;;;;;0.52;0.30;;;;;;;14.64;100.00;99927.28;6291557;22;20018;-55
2021/06/25 12:17:15;;;;;;;1.48;0.40;;;;;;;14.87;100.00;99928.97;6293368;22;20014;-55
2021/06/25 12:20:32;;;;;;;0.52;0.25;;;;;;;15.09;100.00;99943.06;6301193;22;20014;-56
2021/06/25 12:23:39;;;;;;;0.30;0.20;;;;;;;15.10;100.00;99936.19;6280337;22;20434;-55
2021/06/25 12:26:45;;;;;;;0.30;0.20;;;;;;;14.96;100.00;99937.16;6297485;22;20034;-55
2021/06/25 12:30:00;;;;;;;1.88;0.38;;;;;;;14.94;100.00;99938.94;6295619;22;20038;-56
2021/06/25 12:33:06;;;;;;;0.75;0.20;;;;;;;14.68;100.00;99939.06;6297718;22;20462;-56
2021/06/25 12:36:14;;;;;;;2.72;0.28;;;;;;;14.58;100.00;99934.16;6300044;22;20053;-56
2021/06/25 12:39:19;;;;;;;3.25;0.68;;;;;;;14.54;100.00;99931.59;6296752;22;20277;-54
2021/06/25 12:42:23;;;;;;;0.88;0.38;;;;;;;14.45;100.00;99948.59;6295787;22;20311;-52
2021/06/25 12:45:35;;;;;;;1.02;0.40;;;;;;;14.32;100.00;99943.41;6297645;22;20105;-52
2021/06/25 12:48:47;;;;;;;0.57;0.43;;;;;;;14.31;100.00;99941.13;6298330;22;20117;-55
2021/06/25 12:51:51;;;;;;;2.30;0.20;;;;;;;14.48;100.00;99947.59;6300392;22;20022;-53
2021/06/25 12:54:54;;;;;;;0.43;0.35;;;;;;;14.54;100.00;99948.41;6300398;22;20014;-55
2021/06/25 12:57:59;;;;;;;0.70;0.30;;;;;;;14.45;100.00;99945.78;6300966;22;20482;-55
2021/06/25 13:01:04;;;;;;;0.38;0.20;;;;;;;14.43;100.00;99951.13;6278278;22;20030;-56
2021/06/25 13:04:29;;;;;;;1.08;0.65;;;;;;;14.39;100.00;99933.78;6301075;22;20339;-56
2021/06/25 13:07:32;;;;;;;0.60;0.28;;;;;;;14.44;100.00;99936.63;6293818;22;20030;-56
2021/06/25 13:10:36;;;;;;;1.02;0.38;;;;;;;14.42;100.00;99939.16;6302081;22;20031;-55
2021/06/25 13:13:39;;;;;;;0.40;0.30;;;;;;;14.32;100.00;99934.25;6304612;22;20025;-54
2021/06/25 13:16:43;;;;;;;3.13;0.85;;;;;;;14.26;100.00;99934.19;6303367;22;20025;-46
2021/06/25 13:19:54;;;;;;;0.73;0.40;;;;;;;14.23;100.00;99935.16;6298072;22;20010;-46
2021/06/25 13:23:04;;;;;;;;;;;;;;;14.16;100.00;99932.06;6295734;22;20223;-45
2021/06/25 13:26:18;;;;;;;0.75;0.40;;;;;;;13.96;100.00;99926.56;6296221;22;20336;-45
2021/06/25 13:29:24;;;;;;;1.98;0.55;;;;;;;13.83;100.00;99937.41;6277330;22;20022;-46
2021/06/25 13:32:30;;;;;;;2.85;0.90;;;;;;;13.71;100.00;99938.56;6296377;22;20014;-45
2021/06/25 13:35:46;;;;;;;2.60;0.95;;;;;;;13.66;100.00;99935.22;6274851;22;20018;-46
2021/06/25 13:39:07;;;;;;;0.38;0.28;;;;;;;13.68;100.00;99929.91;6290754;22;20136;-45
2021/06/25 13:42:15;;;;;;;0.52;0.35;;;;;;;13.67;100.00;99939.56;6301765;22;20533;-46
2021/06/25 13:45:22;;;;;;;0.32;0.22;;;;;;;13.74;100.00;99935.53;6301177;22;20014;-45
2021/06/25 13:48:26;;;;;;;1.25;0.45;;;;;;;13.97;100.00;99936.53;6298709;22;20359;-46
2021/06/25 13:51:31;;;;;;;0.95;0.32;;;;;;;14.32;100.00;99934.25;6299150;22;20378;-46
2021/06/25 13:54:34;;;;;;;3.95;0.73;;;;;;;14.39;100.00;99928.19;6300104;22;20018;-46
2021/06/25 13:57:59;;;;;;;1.10;0.43;;;;;;;14.23;100.00;99928.78;6298981;22;20018;-46
2021/06/25 14:01:04;;;;;;;0.40;0.32;;;;;;;14.13;100.00;99931.03;6299776;22;20014;-46
2021/06/25 14:04:11;;;;;;;0.20;0.10;;;;;;;14.14;100.00;99923.41;6299480;22;20017;-45
2021/06/25 14:07:16;;;;;;;4.25;0.68;;;;;;;14.06;100.00;99927.91;6298474;22;20446;-46
2021/06/25 14:10:19;;;;;;;0.30;0.20;;;;;;;13.96;100.00;99935.75;6298739;22;20403;-46
2021/06/25 14:13:34;;;;;;;1.83;0.80;;;;;;;13.84;100.00;99922.16;6296767;22;20022;-45
2021/06/25 14:16:41;;;;;;;0.45;0.17;;;;;;;13.71;100.00;99927.38;6299377;22;20038;-46
2021/06/25 14:19:45;;;;;;;1.33;0.10;;;;;;;13.65;100.00;99930.88;6279918;22;20022;-47
2021/06/25 14:22:48;;;;;;;0.73;0.30;;;;;;;13.69;100.00;99934.22;6299647;22;20018;-46
2021/06/25 14:25:52;;;;;;;0.65;0.50;;;;;;;13.73;100.00;99933.25;6298556;22;20359;-47
2021/06/25 14:28:56;;;;;;;0.93;0.50;;;;;;;13.85;100.00;99929.28;6299512;22;20018;-47
2021/06/25 14:32:00;;;;;;;0.25;0.10;;;;;;;13.84;100.00;99917.31;6299629;22;20082;-47
2021/06/25 14:35:04;;;;;;;0.30;0.28;;;;;;;13.92;100.00;99924.00;6300323;22;20022;-47